createdAt,value
2023-05-19T00:00:30.801Z,10.11
2023-05-19T00:03:21.822Z,10.09
2023-05-19T00:05:53.677Z,10.07
2023-05-19T00:08:24.744Z,10.05
2023-05-19T00:10:52.964Z,10.03
2023-05-19T00:13:21.800Z,10.02
2023-05-19T00:15:51.073Z,10.02
2023-05-19T00:18:19.202Z,10.01
2023-05-19T00:20:47.138Z,10.02
2023-05-19T00:23:15.175Z,10.03
2023-05-19T00:25:43.188Z,10.04
2023-05-19T00:28:11.159Z,10.05
2023-05-19T00:30:39.187Z,10.08
2023-05-19T00:33:07.211Z,10.10
2023-05-19T00:35:35.703Z,10.10
2023-05-19T00:38:03.794Z,10.11
2023-05-19T00:40:35.262Z,10.11
2023-05-19T00:43:05.532Z,10.11
2023-05-19T00:45:34.040Z,10.10
2023-05-19T00:48:02.135Z,10.10
2023-05-19T00:50:30.712Z,10.10
2023-05-19T00:52:59.786Z,10.08
2023-05-19T00:55:29.452Z,10.07
2023-05-19T00:57:57.961Z,10.06
2023-05-19T01:00:25.946Z,10.05
2023-05-19T01:02:54.363Z,10.03
2023-05-19T01:05:22.623Z,10.02
2023-05-19T01:07:55.594Z,10.00
2023-05-19T01:10:23.723Z,9.99
2023-05-19T01:12:51.719Z,9.98
2023-05-19T01:15:20.041Z,9.96
2023-05-19T01:17:55.042Z,9.93
2023-05-19T01:20:29.599Z,9.91
2023-05-19T01:23:06.763Z,9.91
2023-05-19T01:26:04.669Z,9.91
2023-05-19T01:28:46.562Z,9.92
2023-05-19T01:31:17.069Z,9.93
2023-05-19T01:33:46.573Z,9.92
2023-05-19T01:36:17.151Z,9.93
2023-05-19T01:38:46.215Z,9.90
2023-05-19T01:41:14.417Z,9.87
2023-05-19T01:43:43.000Z,9.84
2023-05-19T01:46:12.087Z,9.79
2023-05-19T01:48:40.988Z,9.77
2023-05-19T01:51:09.009Z,9.77
2023-05-19T01:53:37.208Z,9.78
2023-05-19T01:56:06.468Z,9.79
2023-05-19T01:58:47.798Z,9.80
2023-05-19T02:01:24.858Z,9.80
2023-05-19T02:04:11.266Z,9.78
2023-05-19T02:06:49.845Z,9.78
2023-05-19T02:09:34.379Z,9.77
2023-05-19T02:12:10.958Z,9.76
2023-05-19T02:14:45.798Z,9.75
2023-05-19T02:17:16.819Z,9.74
2023-05-19T02:19:45.269Z,9.70
2023-05-19T02:22:13.336Z,9.65
2023-05-19T02:24:41.531Z,9.63
2023-05-19T02:27:09.518Z,9.60
2023-05-19T02:29:37.733Z,9.55
2023-05-19T02:32:07.376Z,9.52
2023-05-19T02:34:35.821Z,9.51
2023-05-19T02:37:07.733Z,9.49
2023-05-19T02:39:35.985Z,9.48
2023-05-19T02:42:04.273Z,9.49
2023-05-19T02:44:32.500Z,9.50
2023-05-19T02:47:00.773Z,9.52
2023-05-19T02:49:35.862Z,9.53
2023-05-19T02:52:04.955Z,9.55
2023-05-19T02:54:34.738Z,9.56
2023-05-19T02:57:02.849Z,9.57
2023-05-19T02:59:31.431Z,9.56
2023-05-19T03:02:01.613Z,9.57
2023-05-19T03:04:30.187Z,9.57
2023-05-19T03:06:58.264Z,9.57
2023-05-19T03:09:26.390Z,9.58
2023-05-19T03:11:54.422Z,9.58
2023-05-19T03:14:24.133Z,9.59
2023-05-19T03:16:52.448Z,9.59
2023-05-19T03:19:20.863Z,9.60
2023-05-19T03:21:49.671Z,9.61
2023-05-19T03:24:18.217Z,9.64
2023-05-19T03:26:46.481Z,9.68
2023-05-19T03:29:14.950Z,9.71
2023-05-19T03:31:43.198Z,9.73
2023-05-19T03:34:11.403Z,9.76
2023-05-19T03:36:39.922Z,9.78
2023-05-19T03:39:11.831Z,9.81
2023-05-19T03:41:40.347Z,9.83
2023-05-19T03:44:08.283Z,9.87
2023-05-19T03:46:36.390Z,9.91
2023-05-19T03:49:23.298Z,9.98
2023-05-19T03:52:10.096Z,10.03
2023-05-19T03:54:53.885Z,10.07
2023-05-19T03:57:22.570Z,10.11
2023-05-19T03:59:50.754Z,10.16
2023-05-19T04:02:18.856Z,10.23
2023-05-19T04:04:50.753Z,10.31
2023-05-19T04:07:18.905Z,10.38
2023-05-19T04:09:48.668Z,10.44
2023-05-19T04:12:16.731Z,10.49
2023-05-19T04:14:44.691Z,10.55
2023-05-19T04:17:12.811Z,10.63
2023-05-19T04:19:41.104Z,10.68
2023-05-19T04:22:08.974Z,10.75
2023-05-19T04:24:37.678Z,10.81
2023-05-19T04:27:11.914Z,10.87
2023-05-19T04:29:41.036Z,10.93
2023-05-19T04:32:10.822Z,10.97
2023-05-19T04:34:40.856Z,11.01
2023-05-19T04:37:10.285Z,11.05
2023-05-19T04:39:40.387Z,11.09
2023-05-19T04:42:10.072Z,11.14
2023-05-19T04:44:40.277Z,11.35
2023-05-19T04:47:09.274Z,11.50
2023-05-19T04:49:40.842Z,11.52
2023-05-19T04:52:10.959Z,11.53
2023-05-19T04:54:40.253Z,11.54
2023-05-19T04:57:08.559Z,11.63
2023-05-19T04:59:38.645Z,11.75
2023-05-19T05:02:08.034Z,11.97
2023-05-19T05:04:36.482Z,11.96
2023-05-19T05:07:04.523Z,11.89
2023-05-19T05:09:32.466Z,11.84
2023-05-19T05:12:02.194Z,11.79
2023-05-19T05:14:31.271Z,11.77
2023-05-19T05:16:59.477Z,11.74
2023-05-19T05:19:27.800Z,11.72
2023-05-19T05:21:56.444Z,11.72
2023-05-19T05:24:24.894Z,11.70
2023-05-19T05:26:55.755Z,11.71
2023-05-19T05:29:24.133Z,11.71
2023-05-19T05:31:52.268Z,11.71
2023-05-19T05:34:20.344Z,11.73
2023-05-19T05:36:48.524Z,11.75
2023-05-19T05:39:19.876Z,11.79
2023-05-19T05:41:48.025Z,11.83
2023-05-19T05:44:15.991Z,11.85
2023-05-19T05:46:45.554Z,11.85
2023-05-19T05:49:13.874Z,11.84
2023-05-19T05:51:54.294Z,11.87
2023-05-19T05:54:32.845Z,11.87
2023-05-19T05:57:02.667Z,11.88
2023-05-19T05:59:33.184Z,11.91
2023-05-19T06:02:01.503Z,11.96
2023-05-19T06:04:30.212Z,12.03
2023-05-19T06:07:01.275Z,12.08
2023-05-19T06:09:32.929Z,12.11
2023-05-19T06:12:01.689Z,12.15
2023-05-19T06:14:32.947Z,12.21
2023-05-19T06:17:30.377Z,12.33
2023-05-19T06:19:58.593Z,12.47
2023-05-19T06:22:27.878Z,12.63
2023-05-19T06:24:56.348Z,12.80
2023-05-19T06:27:24.392Z,12.96
2023-05-19T06:29:53.089Z,13.14
2023-05-19T06:32:21.322Z,13.30
2023-05-19T06:34:54.662Z,13.36
2023-05-19T06:37:24.536Z,13.31
2023-05-19T06:39:54.569Z,13.28
2023-05-19T06:42:23.107Z,13.29
2023-05-19T06:44:58.060Z,13.33
2023-05-19T06:47:27.771Z,13.44
2023-05-19T06:49:55.999Z,13.63
2023-05-19T06:52:26.802Z,13.85
2023-05-19T06:54:55.458Z,14.02
2023-05-19T06:57:23.786Z,14.12
2023-05-19T06:59:52.544Z,14.18
2023-05-19T07:02:20.899Z,14.23
2023-05-19T07:04:49.130Z,14.23
2023-05-19T07:07:17.434Z,14.15
2023-05-19T07:09:45.942Z,14.06
2023-05-19T07:12:14.273Z,14.00
2023-05-19T07:14:42.434Z,13.95
2023-05-19T07:17:11.200Z,13.87
2023-05-19T07:19:41.429Z,13.80
2023-05-19T07:22:09.772Z,13.70
2023-05-19T07:24:37.793Z,13.58
2023-05-19T07:27:05.816Z,13.51
2023-05-19T07:29:33.830Z,13.47
2023-05-19T07:32:01.850Z,13.39
2023-05-19T07:34:29.938Z,13.34
2023-05-19T07:36:57.981Z,13.36
2023-05-19T07:39:29.562Z,13.36
2023-05-19T07:41:57.673Z,13.38
2023-05-19T07:44:27.168Z,13.42
2023-05-19T07:46:55.261Z,13.43
2023-05-19T07:49:23.435Z,13.45
2023-05-19T07:51:51.896Z,13.47
2023-05-19T07:54:21.355Z,13.46
2023-05-19T07:56:49.494Z,13.49
2023-05-19T07:59:17.421Z,13.51
2023-05-19T08:01:45.725Z,13.51
2023-05-19T08:04:14.198Z,13.54
2023-05-19T08:06:44.388Z,13.53
2023-05-19T08:09:12.483Z,13.52
2023-05-19T08:11:40.564Z,13.50
2023-05-19T08:14:08.586Z,13.45
2023-05-19T08:16:36.595Z,13.38
2023-05-19T08:19:06.861Z,13.29
2023-05-19T08:21:35.631Z,13.25
2023-05-19T08:24:04.383Z,13.26
2023-05-19T08:26:32.333Z,13.30
2023-05-19T08:29:00.361Z,13.31
2023-05-19T08:31:28.362Z,13.37
2023-05-19T08:33:56.640Z,13.40
2023-05-19T08:36:24.953Z,13.43
2023-05-19T08:38:52.927Z,13.45
2023-05-19T08:41:22.886Z,13.43
2023-05-19T08:43:50.970Z,13.38
2023-05-19T08:46:21.903Z,13.34
2023-05-19T08:48:54.878Z,13.35
2023-05-19T08:51:57.534Z,13.37
2023-05-19T08:54:33.730Z,13.40
2023-05-19T08:57:02.316Z,13.44
2023-05-19T08:59:30.818Z,13.48
2023-05-19T09:01:59.333Z,13.50
2023-05-19T09:04:29.980Z,13.48
2023-05-19T09:07:02.651Z,13.47
2023-05-19T09:09:30.805Z,13.47
2023-05-19T09:11:58.897Z,13.46
2023-05-19T09:14:26.917Z,13.46
2023-05-19T09:16:55.236Z,13.45
2023-05-19T09:19:23.434Z,13.44
2023-05-19T09:22:01.402Z,13.44
2023-05-19T09:24:29.705Z,13.46
2023-05-19T09:27:00.015Z,13.50
2023-05-19T09:29:28.370Z,13.56
2023-05-19T09:32:06.117Z,13.67
2023-05-19T09:34:34.358Z,13.82
2023-05-19T09:37:02.337Z,13.92
2023-05-19T09:39:30.489Z,13.94
2023-05-19T09:41:58.827Z,13.91
2023-05-19T09:44:30.705Z,13.86
2023-05-19T09:46:59.827Z,13.83
2023-05-19T09:49:30.335Z,13.85
2023-05-19T09:52:00.126Z,14.02
2023-05-19T09:54:29.819Z,14.21
2023-05-19T09:57:03.646Z,14.26
2023-05-19T09:59:33.673Z,14.28
2023-05-19T10:02:02.924Z,14.29
2023-05-19T10:04:31.878Z,14.32
2023-05-19T10:07:05.550Z,14.42
2023-05-19T10:09:36.374Z,14.53
2023-05-19T10:12:05.608Z,14.57
2023-05-19T10:14:33.579Z,14.63
2023-05-19T10:17:01.668Z,14.72
2023-05-19T10:19:30.022Z,14.78
2023-05-19T10:21:58.198Z,14.84
2023-05-19T10:24:26.725Z,14.88
2023-05-19T10:27:04.007Z,14.88
2023-05-19T10:29:36.576Z,14.90
2023-05-19T10:32:12.039Z,14.96
2023-05-19T10:35:08.174Z,15.04
2023-05-19T10:37:58.933Z,15.10
2023-05-19T10:40:29.630Z,15.20
2023-05-19T10:43:08.895Z,15.25
2023-05-19T10:45:46.012Z,15.31
2023-05-19T10:48:16.083Z,15.34
2023-05-19T10:50:46.742Z,15.31
2023-05-19T10:53:18.591Z,15.30
2023-05-19T10:56:00.138Z,15.34
2023-05-19T10:58:36.985Z,15.39
2023-05-19T11:01:15.813Z,15.43
2023-05-19T11:03:53.927Z,15.46
2023-05-19T11:06:33.074Z,15.48
2023-05-19T11:09:10.362Z,15.47
2023-05-19T11:11:49.929Z,15.52
2023-05-19T11:14:21.087Z,15.62
2023-05-19T11:16:59.389Z,15.70
2023-05-19T11:19:29.469Z,15.76
2023-05-19T11:22:08.943Z,15.80
2023-05-19T11:24:42.845Z,15.86
2023-05-19T11:27:33.455Z,15.85
2023-05-19T11:30:20.190Z,15.79
2023-05-19T11:32:48.540Z,15.71
2023-05-19T11:35:19.122Z,15.66
2023-05-19T11:37:49.096Z,15.69
2023-05-19T11:40:18.023Z,15.79
2023-05-19T11:42:46.174Z,15.92
2023-05-19T11:45:14.339Z,16.10
2023-05-19T11:48:00.853Z,16.22
2023-05-19T11:50:31.369Z,16.25
2023-05-19T11:53:01.051Z,16.25
2023-05-19T11:55:29.692Z,16.18
2023-05-19T11:58:04.690Z,16.12
2023-05-19T12:00:39.979Z,16.09
2023-05-19T12:03:09.687Z,16.02
2023-05-19T12:05:43.541Z,15.95
2023-05-19T12:08:12.814Z,15.93
2023-05-19T12:10:41.141Z,15.94
2023-05-19T12:13:10.181Z,15.92
2023-05-19T12:15:39.157Z,15.90
2023-05-19T12:18:07.683Z,15.88
2023-05-19T12:20:36.426Z,15.85
2023-05-19T12:23:05.220Z,15.84
2023-05-19T12:25:33.602Z,15.81
2023-05-19T12:28:05.445Z,15.80
2023-05-19T12:30:34.725Z,15.80
2023-05-19T12:33:03.602Z,15.77
2023-05-19T12:35:34.056Z,15.72
2023-05-19T12:38:06.648Z,15.72
2023-05-19T12:40:36.306Z,15.72
2023-05-19T12:43:05.621Z,15.70
2023-05-19T12:45:38.327Z,15.73
2023-05-19T12:48:11.774Z,15.74
2023-05-19T12:50:40.023Z,15.78
2023-05-19T12:53:15.179Z,15.78
2023-05-19T12:55:45.517Z,15.71
2023-05-19T12:58:15.782Z,15.62
2023-05-19T13:00:47.496Z,15.52
2023-05-19T13:03:15.956Z,15.47
2023-05-19T13:05:48.200Z,15.40
2023-05-19T13:08:21.706Z,15.34
2023-05-19T13:10:50.153Z,15.31
2023-05-19T13:13:18.670Z,15.31
2023-05-19T13:15:50.910Z,15.34
2023-05-19T13:18:19.180Z,15.31
2023-05-19T13:20:49.214Z,15.30
2023-05-19T13:23:17.370Z,15.29
2023-05-19T13:25:45.539Z,15.28
2023-05-19T13:28:13.474Z,15.24
2023-05-19T13:30:43.455Z,15.19
2023-05-19T13:33:12.030Z,15.18
2023-05-19T13:35:40.226Z,15.18
2023-05-19T13:38:10.299Z,15.15
2023-05-19T13:40:40.269Z,15.12
2023-05-19T13:45:56.791Z,15.13
2023-05-19T13:48:25.017Z,15.17
2023-05-19T13:50:55.702Z,15.23
2023-05-19T13:51:32.962Z,15.11
2023-05-19T13:53:23.645Z,15.28
2023-05-19T13:55:53.045Z,15.24
2023-05-19T13:58:21.126Z,15.22
2023-05-19T14:00:51.128Z,15.19
2023-05-19T14:03:19.915Z,15.13
2023-05-19T14:05:50.812Z,15.11
2023-05-19T14:08:19.124Z,15.10
2023-05-19T14:10:47.471Z,15.08
2023-05-19T14:13:31.424Z,15.08
2023-05-19T14:16:02.363Z,15.12
2023-05-19T14:18:31.035Z,15.10
2023-05-19T14:20:59.021Z,15.04
2023-05-19T14:23:27.931Z,14.99
2023-05-19T14:25:56.531Z,14.94
2023-05-19T14:28:24.578Z,14.94
2023-05-19T14:30:52.714Z,14.97
2023-05-19T14:33:21.334Z,14.98
2023-05-19T14:35:49.285Z,14.94
2023-05-19T14:38:17.275Z,14.87
2023-05-19T14:40:45.667Z,14.80
2023-05-19T14:43:13.969Z,14.71
2023-05-19T14:45:42.177Z,14.64
2023-05-19T14:48:13.527Z,14.57
2023-05-19T14:50:41.703Z,14.52
2023-05-19T14:53:09.830Z,14.47
2023-05-19T14:55:37.823Z,14.44
2023-05-19T14:58:15.848Z,14.40
2023-05-19T15:00:48.262Z,14.37
2023-05-19T15:03:16.415Z,14.39
2023-05-19T15:05:45.450Z,14.40
2023-05-19T15:08:13.455Z,14.42
2023-05-19T15:10:41.460Z,14.44
2023-05-19T15:13:09.383Z,14.46
2023-05-19T15:15:37.365Z,14.49
2023-05-19T15:18:05.321Z,14.53
2023-05-19T15:20:33.555Z,14.55
2023-05-19T15:23:01.802Z,14.57
2023-05-19T15:25:30.081Z,14.54
2023-05-19T15:27:58.030Z,14.46
2023-05-19T15:30:26.119Z,14.41
2023-05-19T15:32:54.221Z,14.33
2023-05-19T15:35:22.278Z,14.24
2023-05-19T15:37:50.291Z,14.18
2023-05-19T15:40:18.381Z,14.14
2023-05-19T15:42:46.299Z,14.16
2023-05-19T15:45:14.296Z,14.16
2023-05-19T15:47:42.368Z,14.15
2023-05-19T15:50:10.558Z,14.16
2023-05-19T15:52:38.489Z,14.21
2023-05-19T15:55:07.098Z,14.30
2023-05-19T15:57:35.339Z,14.41
2023-05-19T16:00:03.799Z,14.52
2023-05-19T16:02:33.722Z,14.63
2023-05-19T16:05:01.890Z,14.72
2023-05-19T16:07:29.922Z,14.81
2023-05-19T16:09:58.065Z,14.90
2023-05-19T16:12:27.525Z,14.98
2023-05-19T16:14:55.632Z,15.07
2023-05-19T16:17:23.634Z,15.17
2023-05-19T16:19:51.626Z,15.27
2023-05-19T16:22:20.091Z,15.36
2023-05-19T16:24:48.819Z,15.42
2023-05-19T16:27:16.962Z,15.45
2023-05-19T16:29:44.963Z,15.45
2023-05-19T16:32:13.105Z,15.42
2023-05-19T16:34:41.238Z,15.36
2023-05-19T16:37:09.277Z,15.32
2023-05-19T16:39:37.409Z,15.30
2023-05-19T16:42:05.530Z,15.24
2023-05-19T16:44:33.586Z,15.16
2023-05-19T16:47:01.643Z,15.10
2023-05-19T16:49:29.737Z,15.08
2023-05-19T16:51:57.686Z,15.05
2023-05-19T16:54:25.934Z,15.05
2023-05-19T16:56:53.929Z,15.04
2023-05-19T16:59:21.919Z,15.02
2023-05-19T17:01:50.202Z,14.99
2023-05-19T17:04:18.322Z,14.96
2023-05-19T17:06:46.492Z,14.94
2023-05-19T17:09:14.484Z,14.93
2023-05-19T17:11:42.486Z,14.90
2023-05-19T17:14:10.568Z,14.92
2023-05-19T17:16:38.545Z,14.95
2023-05-19T17:19:06.612Z,14.96
2023-05-19T17:21:34.935Z,14.90
2023-05-19T17:24:03.372Z,14.83
2023-05-19T17:26:31.372Z,14.76
2023-05-19T17:28:59.390Z,14.73
2023-05-19T17:31:27.655Z,14.72
2023-05-19T17:33:57.844Z,14.68
2023-05-19T17:36:26.460Z,14.66
2023-05-19T17:38:54.626Z,14.65
2023-05-19T17:41:22.796Z,14.60
2023-05-19T17:43:50.793Z,14.54
2023-05-19T17:46:18.795Z,14.50
2023-05-19T17:48:46.726Z,14.48
2023-05-19T17:51:14.685Z,14.44
2023-05-19T17:53:43.083Z,14.40
2023-05-19T17:56:12.550Z,14.35
2023-05-19T17:58:41.386Z,14.29
2023-05-19T18:01:10.957Z,14.23
2023-05-19T18:03:39.487Z,14.18
2023-05-19T18:06:08.094Z,14.14
2023-05-19T18:08:37.694Z,14.10
2023-05-19T18:11:06.060Z,14.04
2023-05-19T18:13:34.097Z,13.99
2023-05-19T18:16:02.410Z,13.96
2023-05-19T18:18:30.476Z,13.93
2023-05-19T18:20:58.406Z,13.88
2023-05-19T18:23:26.635Z,13.84
2023-05-19T18:25:54.699Z,13.82
2023-05-19T18:28:23.804Z,13.78
2023-05-19T18:31:03.700Z,13.72
2023-05-19T18:33:32.367Z,13.70
2023-05-19T18:36:00.506Z,13.68
2023-05-19T18:38:28.558Z,13.66
2023-05-19T18:40:56.890Z,13.63
2023-05-19T18:43:25.038Z,13.61
2023-05-19T18:45:53.027Z,13.60
2023-05-19T18:48:22.567Z,13.60
2023-05-19T18:50:50.708Z,13.61
2023-05-19T18:53:18.757Z,13.59
2023-05-19T18:55:46.852Z,13.56
2023-05-19T18:58:14.984Z,13.55
2023-05-19T19:00:43.087Z,13.54
2023-05-19T19:03:11.934Z,13.51
2023-05-19T19:05:40.521Z,13.49
2023-05-19T19:08:08.666Z,13.47
2023-05-19T19:10:39.199Z,13.45
2023-05-19T19:13:07.440Z,13.42
2023-05-19T19:15:36.182Z,13.40
2023-05-19T19:18:05.545Z,13.39
2023-05-19T19:20:35.062Z,13.37
2023-05-19T19:23:06.530Z,13.36
2023-05-19T19:25:35.070Z,13.35
2023-05-19T19:28:03.643Z,13.32
2023-05-19T19:30:32.001Z,13.30
2023-05-19T19:33:00.384Z,13.30
2023-05-19T19:35:28.979Z,13.28
2023-05-19T19:38:04.370Z,13.26
2023-05-19T19:40:32.904Z,13.25
2023-05-19T19:43:01.261Z,13.24
2023-05-19T19:45:29.340Z,13.22
2023-05-19T19:47:57.285Z,13.21
2023-05-19T19:50:25.958Z,13.19
2023-05-19T19:52:54.416Z,13.18
2023-05-19T19:55:22.816Z,13.16
2023-05-19T19:57:51.330Z,13.16
2023-05-19T20:00:19.397Z,13.17
2023-05-19T20:03:03.778Z,13.18
2023-05-19T20:05:33.066Z,13.18
2023-05-19T20:08:04.237Z,13.19
2023-05-19T20:10:32.382Z,13.21
2023-05-19T20:13:00.687Z,13.22
2023-05-19T20:15:28.595Z,13.25
2023-05-19T20:17:56.601Z,13.26
2023-05-19T20:20:26.359Z,13.29
2023-05-19T20:22:54.347Z,13.30
2023-05-19T20:25:22.387Z,13.29
2023-05-19T20:27:50.453Z,13.26
2023-05-19T20:30:18.467Z,13.25
2023-05-19T20:32:46.836Z,13.25
2023-05-19T20:35:17.527Z,13.26
2023-05-19T20:37:45.515Z,13.29
2023-05-19T20:40:13.757Z,13.30
2023-05-19T20:42:41.922Z,13.27
2023-05-19T20:45:10.133Z,13.25
2023-05-19T20:47:38.758Z,13.25
2023-05-19T20:50:07.207Z,13.26
2023-05-19T20:52:35.289Z,13.25
2023-05-19T20:55:03.480Z,13.23
2023-05-19T20:57:31.712Z,13.22
2023-05-19T21:00:01.078Z,13.20
2023-05-19T21:02:29.071Z,13.18
2023-05-19T21:04:57.205Z,13.17
2023-05-19T21:07:25.475Z,13.16
2023-05-19T21:09:54.396Z,13.15
2023-05-19T21:12:28.590Z,13.16
2023-05-19T21:14:56.579Z,13.15
2023-05-19T21:17:24.782Z,13.14
2023-05-19T21:19:57.731Z,13.16
2023-05-19T21:22:26.767Z,13.16
2023-05-19T21:24:55.250Z,13.17
2023-05-19T21:27:23.496Z,13.18
2023-05-19T21:29:53.552Z,13.17
2023-05-19T21:32:22.023Z,13.16
2023-05-19T21:34:50.234Z,13.17
2023-05-19T21:37:18.280Z,13.16
2023-05-19T21:39:46.437Z,13.16
2023-05-19T21:42:14.360Z,13.16
2023-05-19T21:44:42.273Z,13.15
2023-05-19T21:47:10.502Z,13.14
2023-05-19T21:49:40.736Z,13.13
2023-05-19T21:52:08.857Z,13.12
2023-05-19T21:54:36.832Z,13.11
2023-05-19T21:57:04.981Z,13.11
2023-05-19T21:59:32.999Z,13.12
2023-05-19T22:02:00.990Z,13.11
2023-05-19T22:04:31.546Z,13.10
2023-05-19T22:07:01.050Z,13.09
2023-05-19T22:09:29.456Z,13.06
2023-05-19T22:11:57.451Z,13.04
2023-05-19T22:14:25.441Z,13.02
2023-05-19T22:16:53.504Z,12.98
2023-05-19T22:19:21.555Z,12.93
2023-05-19T22:21:53.685Z,12.91
2023-05-19T22:24:26.613Z,12.90
2023-05-19T22:26:54.594Z,12.87
2023-05-19T22:29:22.551Z,12.84
2023-05-19T22:31:50.520Z,12.81
2023-05-19T22:34:18.753Z,12.79
2023-05-19T22:36:46.842Z,12.78
2023-05-19T22:39:14.952Z,12.76
2023-05-19T22:41:42.989Z,12.73
2023-05-19T22:44:13.069Z,12.73
2023-05-19T22:46:41.039Z,12.75
2023-05-19T22:49:08.952Z,12.76
2023-05-19T22:51:36.892Z,12.74
2023-05-19T22:54:05.112Z,12.73
2023-05-19T22:56:33.244Z,12.71
2023-05-19T22:59:01.536Z,12.71
2023-05-19T23:01:29.581Z,12.70
2023-05-19T23:03:57.585Z,12.69
2023-05-19T23:06:25.726Z,12.67
2023-05-19T23:09:03.868Z,12.67
2023-05-19T23:11:31.748Z,12.68
2023-05-19T23:13:59.712Z,12.70
2023-05-19T23:16:27.837Z,12.73
2023-05-19T23:18:55.940Z,12.74
2023-05-19T23:21:24.044Z,12.73
2023-05-19T23:23:52.103Z,12.73
2023-05-19T23:26:20.164Z,12.74
2023-05-19T23:28:48.122Z,12.74
2023-05-19T23:31:16.161Z,12.75
2023-05-19T23:33:44.147Z,12.74
2023-05-19T23:36:12.210Z,12.74
2023-05-19T23:38:40.129Z,12.71
2023-05-19T23:41:08.242Z,12.69
2023-05-19T23:43:36.263Z,12.67
2023-05-19T23:46:04.320Z,12.65
2023-05-19T23:48:33.647Z,12.62
2023-05-19T23:51:01.574Z,12.61
2023-05-19T23:53:29.468Z,12.58
2023-05-19T23:55:58.700Z,12.55
2023-05-19T23:58:26.792Z,12.53
